createdAt,value
2022-09-23T00:01:08.955Z,11.76
2022-09-23T00:03:39.319Z,11.70
2022-09-23T00:06:17.992Z,11.66
2022-09-23T00:08:45.277Z,11.76
2022-09-23T00:11:13.845Z,11.71
2022-09-23T00:13:43.338Z,11.59
2022-09-23T00:16:17.300Z,11.38
2022-09-23T00:18:44.725Z,11.29
2022-09-23T00:21:14.447Z,11.23
2022-09-23T00:23:43.433Z,11.13
2022-09-23T00:26:13.811Z,11.14
2022-09-23T00:28:41.451Z,11.04
2022-09-23T00:31:14.611Z,10.98
2022-09-23T00:33:42.015Z,10.92
2022-09-23T00:36:15.575Z,11.00
2022-09-23T00:38:46.032Z,11.06
2022-09-23T00:41:16.924Z,10.90
2022-09-23T00:43:50.309Z,10.86
2022-09-23T00:46:25.495Z,10.97
2022-09-23T00:49:00.048Z,10.89
2022-09-23T00:51:33.384Z,10.85
2022-09-23T00:54:01.471Z,10.75
2022-09-23T00:56:31.224Z,10.74
2022-09-23T00:59:00.818Z,10.74
2022-09-23T01:01:28.105Z,10.73
2022-09-23T01:03:56.935Z,10.68
2022-09-23T01:06:24.620Z,10.72
2022-09-23T01:08:52.591Z,10.68
2022-09-23T01:11:52.324Z,10.58
2022-09-23T01:15:01.297Z,10.56
2022-09-23T01:17:44.141Z,10.57
2022-09-23T01:20:28.935Z,10.59
2022-09-23T01:23:20.767Z,10.51
2022-09-23T01:26:14.081Z,10.54
2022-09-23T01:28:50.696Z,10.55
2022-09-23T01:31:36.929Z,10.54
2022-09-23T01:34:10.079Z,10.45
2022-09-23T01:36:49.144Z,10.47
2022-09-23T01:39:31.970Z,10.49
2022-09-23T01:42:17.332Z,10.55
2022-09-23T01:44:59.116Z,10.43
2022-09-23T01:47:34.578Z,10.47
2022-09-23T01:50:33.402Z,10.51
2022-09-23T01:53:24.301Z,10.54
2022-09-23T01:55:57.202Z,10.41
2022-09-23T01:58:30.618Z,10.36
2022-09-23T02:01:03.079Z,10.46
2022-09-23T02:03:55.654Z,10.40
2022-09-23T02:06:29.470Z,10.40
2022-09-23T02:09:05.028Z,10.41
2022-09-23T02:11:38.596Z,10.48
2022-09-23T02:14:38.748Z,10.49
2022-09-23T02:17:13.573Z,10.44
2022-09-23T02:19:48.848Z,10.59
2022-09-23T02:22:26.540Z,10.47
2022-09-23T02:24:57.633Z,10.57
2022-09-23T02:27:40.836Z,10.48
2022-09-23T02:30:14.092Z,10.47
2022-09-23T02:32:53.400Z,10.52
2022-09-23T02:35:40.256Z,10.48
2022-09-23T02:38:10.380Z,10.41
2022-09-23T02:40:55.896Z,10.49
2022-09-23T02:43:36.134Z,10.49
2022-09-23T02:46:04.889Z,10.40
2022-09-23T02:48:37.852Z,10.32
2022-09-23T02:51:05.395Z,10.26
2022-09-23T02:53:33.899Z,10.30
2022-09-23T02:56:02.307Z,10.41
2022-09-23T02:58:30.024Z,10.38
2022-09-23T03:01:15.793Z,10.47
2022-09-23T03:03:49.402Z,10.37
2022-09-23T03:06:32.035Z,10.30
2022-09-23T03:09:09.179Z,10.15
2022-09-23T03:11:40.885Z,10.08
2022-09-23T03:14:21.968Z,10.01
2022-09-23T03:16:59.097Z,10.02
2022-09-23T03:19:33.824Z,10.03
2022-09-23T03:22:14.973Z,9.91
2022-09-23T03:24:44.893Z,9.91
2022-09-23T03:27:14.236Z,9.86
2022-09-23T03:29:45.489Z,9.85
2022-09-23T03:32:15.779Z,9.77
2022-09-23T03:34:44.821Z,9.79
2022-09-23T03:37:35.773Z,9.84
2022-09-23T03:40:18.071Z,9.88
2022-09-23T03:42:48.824Z,9.79
2022-09-23T03:45:19.791Z,9.82
2022-09-23T03:47:47.732Z,9.74
2022-09-23T03:50:17.328Z,9.70
2022-09-23T03:52:44.948Z,9.73
2022-09-23T03:55:12.187Z,9.76
2022-09-23T03:57:39.664Z,9.71
2022-09-23T04:00:07.882Z,9.71
2022-09-23T04:02:41.845Z,9.82
2022-09-23T04:05:10.757Z,9.84
2022-09-23T04:07:38.329Z,9.90
2022-09-23T04:10:06.393Z,9.84
2022-09-23T04:12:33.581Z,9.87
2022-09-23T04:15:00.842Z,9.82
2022-09-23T04:17:28.252Z,9.79
2022-09-23T04:19:55.522Z,9.81
2022-09-23T04:22:22.676Z,9.69
2022-09-23T04:24:49.963Z,9.59
2022-09-23T04:27:17.108Z,9.76
2022-09-23T04:29:44.537Z,9.77
2022-09-23T04:32:11.820Z,9.69
2022-09-23T04:34:40.020Z,9.61
2022-09-23T04:37:07.416Z,9.61
2022-09-23T04:39:34.775Z,9.63
2022-09-23T04:42:02.962Z,9.70
2022-09-23T04:44:30.253Z,9.69
2022-09-23T04:46:57.538Z,9.74
2022-09-23T04:49:25.524Z,9.65
2022-09-23T04:51:52.747Z,9.74
2022-09-23T04:54:20.125Z,9.73
2022-09-23T04:56:47.336Z,9.73
2022-09-23T04:59:14.593Z,9.65
2022-09-23T05:01:41.918Z,9.69
2022-09-23T05:04:13.321Z,9.77
2022-09-23T05:06:40.515Z,9.79
2022-09-23T05:09:08.886Z,9.94
2022-09-23T05:11:36.273Z,9.83
2022-09-23T05:14:03.638Z,9.91
2022-09-23T05:16:30.904Z,10.07
2022-09-23T05:18:58.465Z,10.11
2022-09-23T05:21:28.824Z,10.05
2022-09-23T05:23:58.940Z,10.21
2022-09-23T05:26:29.026Z,10.27
2022-09-23T05:28:57.074Z,10.33
2022-09-23T05:31:27.183Z,10.38
2022-09-23T05:34:02.925Z,10.41
2022-09-23T05:36:37.610Z,10.45
2022-09-23T05:39:07.824Z,10.68
2022-09-23T05:41:35.920Z,10.65
2022-09-23T05:44:03.257Z,10.67
2022-09-23T05:46:31.215Z,10.75
2022-09-23T05:49:02.890Z,10.81
2022-09-23T05:51:32.514Z,10.82
2022-09-23T05:54:02.893Z,10.91
2022-09-23T05:56:32.433Z,10.99
2022-09-23T05:59:01.738Z,11.04
2022-09-23T06:01:35.352Z,11.09
2022-09-23T06:04:05.374Z,11.17
2022-09-23T06:06:41.442Z,11.20
2022-09-23T06:09:13.345Z,11.27
2022-09-23T06:11:41.705Z,11.32
2022-09-23T06:14:12.319Z,11.32
2022-09-23T06:16:39.452Z,11.38
2022-09-23T06:19:07.167Z,11.42
2022-09-23T06:21:35.568Z,11.48
2022-09-23T06:24:05.930Z,11.55
2022-09-23T06:26:37.455Z,11.62
2022-09-23T06:29:11.873Z,11.77
2022-09-23T06:31:40.676Z,11.83
2022-09-23T06:34:14.422Z,11.91
2022-09-23T06:36:45.547Z,12.09
2022-09-23T06:39:14.456Z,12.31
2022-09-23T06:41:41.423Z,12.53
2022-09-23T06:44:14.309Z,12.73
2022-09-23T06:46:42.278Z,12.94
2022-09-23T06:49:09.642Z,13.24
2022-09-23T06:51:36.929Z,13.58
2022-09-23T06:54:04.674Z,14.03
2022-09-23T06:56:36.341Z,14.47
2022-09-23T06:59:09.713Z,15.16
2022-09-23T07:01:37.022Z,14.90
2022-09-23T07:04:04.490Z,15.07
2022-09-23T07:06:31.715Z,14.78
2022-09-23T07:08:58.846Z,15.28
2022-09-23T07:11:25.876Z,15.29
2022-09-23T07:13:52.908Z,15.20
2022-09-23T07:16:21.075Z,14.99
2022-09-23T07:18:49.344Z,15.17
2022-09-23T07:21:17.483Z,15.13
2022-09-23T07:23:47.433Z,15.19
2022-09-23T07:26:16.912Z,15.09
2022-09-23T07:28:44.177Z,15.09
2022-09-23T07:31:15.269Z,15.27
2022-09-23T07:33:44.286Z,15.69
2022-09-23T07:36:14.309Z,15.94
2022-09-23T07:38:45.300Z,16.53
2022-09-23T07:41:17.114Z,17.02
2022-09-23T07:43:46.010Z,17.17
2022-09-23T07:46:16.848Z,17.13
2022-09-23T07:48:45.802Z,16.88
2022-09-23T07:51:18.361Z,16.52
2022-09-23T07:53:51.181Z,16.40
2022-09-23T07:56:19.896Z,16.19
2022-09-23T07:58:59.829Z,16.09
2022-09-23T08:01:35.072Z,15.95
2022-09-23T08:04:05.495Z,15.98
2022-09-23T08:06:33.616Z,16.06
2022-09-23T08:09:01.691Z,16.08
2022-09-23T08:11:29.024Z,16.13
2022-09-23T08:13:57.375Z,16.24
2022-09-23T08:16:24.743Z,16.43
2022-09-23T08:18:52.130Z,16.79
2022-09-23T08:21:21.248Z,17.12
2022-09-23T08:23:48.944Z,17.33
2022-09-23T08:26:21.624Z,17.41
2022-09-23T08:28:50.527Z,17.21
2022-09-23T08:31:17.793Z,17.21
2022-09-23T08:33:45.427Z,17.35
2022-09-23T08:36:12.691Z,17.98
2022-09-23T08:38:39.967Z,18.04
2022-09-23T08:41:21.455Z,18.12
2022-09-23T08:43:54.281Z,17.86
2022-09-23T08:46:33.626Z,18.24
2022-09-23T08:49:01.992Z,18.20
2022-09-23T08:51:35.887Z,18.55
2022-09-23T08:54:04.548Z,18.99
2022-09-23T08:56:46.505Z,18.78
2022-09-23T08:59:41.997Z,19.20
2022-09-23T09:02:28.376Z,19.36
2022-09-23T09:05:03.275Z,19.49
2022-09-23T09:07:40.240Z,19.38
2022-09-23T09:10:15.572Z,19.62
2022-09-23T09:13:07.464Z,19.68
2022-09-23T09:15:45.712Z,19.87
2022-09-23T09:18:21.672Z,19.52
2022-09-23T09:20:57.334Z,19.26
2022-09-23T09:23:30.997Z,19.44
2022-09-23T09:26:01.615Z,19.54
2022-09-23T09:28:33.882Z,19.73
2022-09-23T09:31:05.715Z,19.77
2022-09-23T09:34:05.537Z,20.00
2022-09-23T09:36:57.838Z,19.90
2022-09-23T09:39:26.438Z,20.03
2022-09-23T09:41:59.651Z,19.63
2022-09-23T09:44:45.743Z,19.88
2022-09-23T09:47:34.946Z,20.27
2022-09-23T09:50:08.143Z,19.85
2022-09-23T09:52:39.851Z,20.24
2022-09-23T09:55:13.056Z,20.19
2022-09-23T09:57:45.514Z,20.10
2022-09-23T10:00:22.003Z,19.71
2022-09-23T10:02:54.994Z,19.21
2022-09-23T10:05:33.044Z,19.44
2022-09-23T10:08:34.938Z,19.68
2022-09-23T10:11:17.036Z,19.52
2022-09-23T10:14:10.779Z,19.83
2022-09-23T10:16:40.020Z,20.15
2022-09-23T10:19:17.157Z,20.52
2022-09-23T10:21:58.805Z,20.38
2022-09-23T10:24:32.141Z,20.63
2022-09-23T10:27:12.014Z,20.63
2022-09-23T10:29:48.592Z,20.82
2022-09-23T10:32:22.040Z,20.28
2022-09-23T10:35:04.589Z,20.61
2022-09-23T10:37:42.178Z,20.92
2022-09-23T10:40:40.896Z,21.26
2022-09-23T10:43:38.859Z,20.44
2022-09-23T10:46:29.462Z,20.32
2022-09-23T10:48:59.789Z,20.36
2022-09-23T10:51:40.836Z,20.65
2022-09-23T10:54:46.281Z,20.54
2022-09-23T10:57:42.772Z,20.83
2022-09-23T11:00:17.500Z,21.26
2022-09-23T11:02:59.635Z,21.34
2022-09-23T11:05:55.288Z,20.77
2022-09-23T11:08:35.122Z,20.58
2022-09-23T11:11:21.768Z,21.17
2022-09-23T11:13:54.580Z,21.13
2022-09-23T11:16:32.454Z,20.33
2022-09-23T11:19:13.428Z,20.47
2022-09-23T11:21:52.941Z,20.30
2022-09-23T11:24:32.846Z,20.85
2022-09-23T11:27:26.555Z,20.85
2022-09-23T11:30:14.387Z,21.05
2022-09-23T11:33:05.336Z,21.18
2022-09-23T11:36:05.059Z,20.72
2022-09-23T11:38:43.485Z,20.59
2022-09-23T11:41:25.834Z,20.70
2022-09-23T11:44:08.075Z,20.33
2022-09-23T11:46:45.904Z,20.43
2022-09-23T11:49:31.800Z,20.88
2022-09-23T11:52:05.208Z,21.20
2022-09-23T11:55:17.072Z,21.01
2022-09-23T11:57:51.571Z,21.05
2022-09-23T12:00:22.147Z,20.84
2022-09-23T12:03:05.529Z,21.16
2022-09-23T12:06:12.299Z,20.77
2022-09-23T12:08:39.674Z,20.74
2022-09-23T12:11:34.872Z,20.59
2022-09-23T12:14:15.995Z,20.49
2022-09-23T12:17:07.522Z,20.89
2022-09-23T12:20:09.262Z,21.31
2022-09-23T12:22:47.958Z,20.91
2022-09-23T12:25:27.500Z,20.97
2022-09-23T12:28:01.582Z,21.05
2022-09-23T12:30:32.741Z,20.99
2022-09-23T12:33:18.374Z,21.01
2022-09-23T12:35:46.161Z,20.92
2022-09-23T12:38:20.142Z,21.06
2022-09-23T12:40:48.281Z,20.78
2022-09-23T12:43:35.470Z,20.64
2022-09-23T12:46:18.240Z,21.00
2022-09-23T12:48:57.906Z,21.12
2022-09-23T12:51:31.569Z,20.69
2022-09-23T12:54:04.810Z,20.95
2022-09-23T12:56:33.135Z,20.92
2022-09-23T12:59:05.584Z,20.80
2022-09-23T13:01:37.846Z,20.80
2022-09-23T13:04:24.973Z,20.89
2022-09-23T13:07:06.343Z,21.18
2022-09-23T13:09:46.952Z,20.75
2022-09-23T13:12:23.248Z,21.14
2022-09-23T13:14:54.770Z,21.33
2022-09-23T13:17:35.916Z,21.21
2022-09-23T13:20:33.437Z,21.56
2022-09-23T13:23:17.802Z,21.22
2022-09-23T13:25:46.689Z,21.41
2022-09-23T13:28:27.750Z,21.33
2022-09-23T13:30:56.557Z,21.31
2022-09-23T13:33:28.469Z,21.12
2022-09-23T13:36:02.363Z,21.24
2022-09-23T13:38:32.264Z,21.54
2022-09-23T13:41:05.158Z,21.40
2022-09-23T13:43:44.909Z,21.47
2022-09-23T13:46:25.257Z,21.59
2022-09-23T13:48:55.976Z,21.74
2022-09-23T13:51:30.909Z,21.15
2022-09-23T13:54:01.501Z,21.41
2022-09-23T13:56:31.725Z,21.55
2022-09-23T13:59:26.958Z,21.68
2022-09-23T14:02:17.730Z,21.34
2022-09-23T14:04:46.469Z,20.89
2022-09-23T14:07:19.584Z,20.90
2022-09-23T14:09:52.317Z,20.88
2022-09-23T14:12:22.533Z,20.38
2022-09-23T14:14:57.164Z,20.47
2022-09-23T14:17:24.446Z,20.81
2022-09-23T14:19:52.030Z,21.14
2022-09-23T14:22:28.918Z,20.82
2022-09-23T14:24:58.412Z,20.87
2022-09-23T14:27:33.768Z,20.88
2022-09-23T14:30:06.715Z,20.75
2022-09-23T14:32:35.599Z,20.81
2022-09-23T14:35:05.516Z,20.77
2022-09-23T14:38:05.941Z,20.89
2022-09-23T14:40:36.795Z,20.73
2022-09-23T14:43:05.228Z,20.51
2022-09-23T14:45:37.180Z,20.69
2022-09-23T14:48:17.600Z,20.73
2022-09-23T14:50:57.581Z,20.73
2022-09-23T14:53:40.785Z,20.83
2022-09-23T14:56:22.496Z,20.77
2022-09-23T14:59:00.540Z,20.35
2022-09-23T15:01:31.255Z,20.46
2022-09-23T15:04:18.792Z,20.54
2022-09-23T15:06:53.581Z,20.50
2022-09-23T15:09:36.000Z,20.54
2022-09-23T15:12:14.125Z,20.53
2022-09-23T15:14:46.560Z,20.67
2022-09-23T15:17:35.168Z,20.43
2022-09-23T15:20:07.078Z,20.52
2022-09-23T15:22:52.008Z,20.71
2022-09-23T15:25:25.679Z,20.81
2022-09-23T15:28:06.620Z,20.64
2022-09-23T15:30:39.028Z,20.42
2022-09-23T15:33:06.675Z,20.19
2022-09-23T15:35:34.585Z,20.18
2022-09-23T15:38:04.503Z,19.97
2022-09-23T15:40:37.257Z,19.95
2022-09-23T15:43:21.748Z,20.15
2022-09-23T15:46:05.361Z,20.36
2022-09-23T15:48:44.171Z,20.60
2022-09-23T15:51:15.087Z,20.47
2022-09-23T15:53:42.513Z,20.40
2022-09-23T15:56:10.246Z,20.40
2022-09-23T15:58:37.518Z,20.25
2022-09-23T16:01:06.834Z,20.35
2022-09-23T16:03:35.708Z,20.21
2022-09-23T16:06:04.700Z,20.00
2022-09-23T16:08:33.729Z,19.88
2022-09-23T16:11:01.707Z,20.00
2022-09-23T16:13:29.600Z,20.19
2022-09-23T16:15:57.622Z,20.23
2022-09-23T16:18:24.991Z,20.21
2022-09-23T16:20:54.157Z,20.14
2022-09-23T16:23:43.818Z,19.89
2022-09-23T16:26:17.179Z,19.90
2022-09-23T16:28:46.163Z,19.77
2022-09-23T16:31:17.837Z,19.68
2022-09-23T16:33:47.608Z,19.13
2022-09-23T16:36:27.816Z,19.23
2022-09-23T16:38:55.882Z,19.13
2022-09-23T16:41:24.343Z,19.20
2022-09-23T16:43:53.403Z,19.20
2022-09-23T16:46:22.518Z,19.04
2022-09-23T16:48:52.936Z,18.72
2022-09-23T16:51:23.956Z,18.21
2022-09-23T16:53:52.844Z,18.09
2022-09-23T16:56:27.954Z,18.23
2022-09-23T16:58:56.626Z,18.05
2022-09-23T17:01:45.142Z,17.78
2022-09-23T17:04:13.248Z,17.57
2022-09-23T17:06:51.015Z,17.33
2022-09-23T17:09:20.585Z,17.21
2022-09-23T17:11:56.280Z,17.09
2022-09-23T17:14:23.570Z,16.94
2022-09-23T17:16:51.194Z,16.96
2022-09-23T17:19:18.652Z,16.92
2022-09-23T17:21:46.450Z,16.81
2022-09-23T17:24:15.109Z,16.72
2022-09-23T17:26:50.657Z,16.71
2022-09-23T17:29:20.204Z,16.57
2022-09-23T17:31:48.110Z,16.32
2022-09-23T17:34:16.305Z,16.33
2022-09-23T17:36:43.499Z,16.20
2022-09-23T17:39:11.053Z,16.18
2022-09-23T17:41:39.241Z,16.17
2022-09-23T17:44:08.097Z,16.08
2022-09-23T17:46:35.523Z,16.30
2022-09-23T17:49:04.306Z,16.32
2022-09-23T17:51:34.456Z,16.37
2022-09-23T17:54:01.773Z,16.36
2022-09-23T17:56:33.802Z,16.32
2022-09-23T17:59:02.276Z,16.37
2022-09-23T18:01:29.773Z,16.29
2022-09-23T18:04:02.149Z,16.24
2022-09-23T18:06:31.706Z,16.41
2022-09-23T18:09:06.672Z,16.33
2022-09-23T18:11:40.591Z,16.28
2022-09-23T18:14:19.658Z,16.29
2022-09-23T18:16:50.988Z,16.33
2022-09-23T18:19:22.572Z,16.25
2022-09-23T18:21:54.451Z,16.15
2022-09-23T18:24:38.706Z,16.05
2022-09-23T18:27:06.837Z,15.96
2022-09-23T18:29:35.335Z,16.00
2022-09-23T18:32:03.861Z,15.87
2022-09-23T18:34:31.182Z,15.77
2022-09-23T18:36:59.094Z,15.84
2022-09-23T18:39:26.612Z,15.63
2022-09-23T18:41:54.797Z,15.65
2022-09-23T18:44:23.270Z,15.69
2022-09-23T18:46:50.909Z,15.59
2022-09-23T18:49:36.593Z,15.48
2022-09-23T18:52:03.953Z,15.45
2022-09-23T18:54:31.450Z,15.59
2022-09-23T18:57:00.067Z,15.49
2022-09-23T18:59:29.608Z,15.55
2022-09-23T19:01:57.548Z,15.48
2022-09-23T19:04:26.700Z,15.42
2022-09-23T19:06:56.415Z,15.41
2022-09-23T19:09:24.349Z,15.48
2022-09-23T19:11:52.597Z,15.35
2022-09-23T19:14:20.133Z,15.24
2022-09-23T19:16:49.205Z,15.30
2022-09-23T19:19:17.756Z,15.24
2022-09-23T19:21:45.154Z,15.29
2022-09-23T19:24:15.880Z,15.33
2022-09-23T19:26:47.191Z,15.25
2022-09-23T19:29:16.998Z,15.20
2022-09-23T19:31:44.548Z,15.11
2022-09-23T19:34:19.961Z,15.19
2022-09-23T19:36:47.862Z,15.21
2022-09-23T19:39:22.827Z,15.22
2022-09-23T19:41:52.740Z,15.19
2022-09-23T19:44:20.374Z,15.19
2022-09-23T19:46:55.100Z,15.12
2022-09-23T19:49:24.678Z,15.07
2022-09-23T19:51:55.768Z,15.00
2022-09-23T19:54:26.438Z,15.02
2022-09-23T19:56:54.232Z,14.99
2022-09-23T19:59:21.646Z,14.90
2022-09-23T20:01:49.343Z,14.98
2022-09-23T20:04:17.411Z,14.92
2022-09-23T20:06:46.726Z,15.00
2022-09-23T20:09:15.840Z,14.93
2022-09-23T20:11:44.134Z,14.92
2022-09-23T20:14:11.933Z,14.94
2022-09-23T20:16:40.331Z,14.92
2022-09-23T20:19:09.769Z,14.99
2022-09-23T20:21:37.320Z,14.94
2022-09-23T20:24:06.439Z,14.97
2022-09-23T20:26:54.170Z,15.00
2022-09-23T20:29:21.550Z,14.94
2022-09-23T20:31:48.904Z,14.92
2022-09-23T20:34:16.520Z,14.93
2022-09-23T20:36:44.209Z,14.99
2022-09-23T20:39:11.558Z,14.89
2022-09-23T20:42:02.692Z,14.87
2022-09-23T20:44:29.996Z,15.01
2022-09-23T20:46:57.729Z,15.07
2022-09-23T20:49:25.221Z,15.12
2022-09-23T20:51:52.372Z,15.26
2022-09-23T20:54:19.912Z,15.22
2022-09-23T20:56:47.775Z,15.23
2022-09-23T20:59:17.477Z,15.25
2022-09-23T21:01:45.241Z,15.31
2022-09-23T21:04:13.177Z,15.29
2022-09-23T21:06:40.460Z,15.23
2022-09-23T21:09:07.756Z,15.26
2022-09-23T21:11:35.569Z,15.42
2022-09-23T21:14:02.965Z,15.28
2022-09-23T21:16:30.689Z,15.15
2022-09-23T21:18:58.829Z,15.07
2022-09-23T21:21:26.538Z,15.02
2022-09-23T21:23:54.265Z,14.93
2022-09-23T21:26:23.967Z,14.86
2022-09-23T21:28:57.646Z,14.87
2022-09-23T21:31:34.402Z,14.85
2022-09-23T21:34:04.139Z,14.88
2022-09-23T21:36:33.385Z,14.86
2022-09-23T21:39:04.258Z,14.83
2022-09-23T21:41:31.667Z,14.76
2022-09-23T21:44:00.353Z,14.71
2022-09-23T21:46:28.943Z,14.77
2022-09-23T21:48:57.471Z,14.73
2022-09-23T21:51:27.039Z,14.71
2022-09-23T21:53:57.059Z,14.77
2022-09-23T21:56:26.468Z,14.75
2022-09-23T21:58:55.384Z,14.77
2022-09-23T22:01:28.063Z,14.78
2022-09-23T22:04:07.991Z,14.80
2022-09-23T22:06:38.087Z,14.82
2022-09-23T22:09:09.202Z,14.79
2022-09-23T22:11:56.550Z,14.90
2022-09-23T22:14:25.965Z,15.09
2022-09-23T22:16:57.354Z,14.92
2022-09-23T22:19:34.714Z,14.92
2022-09-23T22:22:07.012Z,14.90
2022-09-23T22:24:34.423Z,14.92
2022-09-23T22:27:01.744Z,14.87
2022-09-23T22:29:47.711Z,14.87
2022-09-23T22:32:33.694Z,14.87
2022-09-23T22:35:00.976Z,14.86
2022-09-23T22:37:30.494Z,14.88
2022-09-23T22:39:57.807Z,14.88
2022-09-23T22:42:25.233Z,14.82
2022-09-23T22:44:52.584Z,14.89
2022-09-23T22:47:20.288Z,14.99
2022-09-23T22:49:48.637Z,14.98
2022-09-23T22:52:21.069Z,14.92
2022-09-23T22:54:48.444Z,15.00
2022-09-23T22:57:15.722Z,14.93
2022-09-23T22:59:47.990Z,14.92
2022-09-23T23:02:16.979Z,14.95
2022-09-23T23:04:46.652Z,14.88
2022-09-23T23:07:15.422Z,14.90
2022-09-23T23:09:42.585Z,14.83
2022-09-23T23:12:09.886Z,14.87
2022-09-23T23:14:38.027Z,14.87
2022-09-23T23:17:08.395Z,14.93
2022-09-23T23:19:37.099Z,14.95
2022-09-23T23:22:05.296Z,15.00
2022-09-23T23:24:32.601Z,14.97
2022-09-23T23:26:59.815Z,14.93
2022-09-23T23:29:27.730Z,14.90
2022-09-23T23:31:55.101Z,14.88
2022-09-23T23:34:22.973Z,14.99
2022-09-23T23:36:55.065Z,15.02
2022-09-23T23:39:24.766Z,15.03
2022-09-23T23:41:54.715Z,15.07
2022-09-23T23:44:23.801Z,15.04
2022-09-23T23:46:51.981Z,14.96
2022-09-23T23:49:19.558Z,14.97
2022-09-23T23:51:47.767Z,14.97
2022-09-23T23:54:15.336Z,14.91
2022-09-23T23:56:43.282Z,14.91
2022-09-23T23:59:10.545Z,14.91
